Terminal Aerodrome Forecast
Issued by NWS Wilmington, OH

Current Version | Previous Version | Graphics & Text | Print | Product List | Glossary On
Versions: 1 2 3 4 5 6 7 8 9 10 11 12 13 14 15 16 17 18 19 20
306
FTUS41 KILN 200731 AAC
TAFCMH
TAF AMD
KCMH 200731Z 2008/2106 00000KT 1SM BR VV005
      TEMPO 2008/2009 1/4SM FG VV003
     FM200900 00000KT 1/4SM FG VV003
     FM201300 00000KT 1SM BR OVC008
     FM201500 14004KT P6SM SCT015
     FM201800 13006KT P6SM SCT200
     FM210300 12005KT P6SM BKN250=

USA.gov is the U.S. government's official web portal to all federal, state and local government web resources and services.